N525R CYVR-CYYJ
Flight info
| Callsign | N525R |
|---|---|
| Flight time | 0h 18m |
| Altitude | 5000 |
| Route | CYVR/26L CYYJ |
| Aircraft | C208/L-SDFGR/C |
Departure
| Time | 2026-05-08 02:05 |
|---|---|
| Airport | Vancouver International Airport (CYVR) |
Arrival
| Time | 2026-05-08 02:23 |
|---|---|
| Airport | Victoria International Airport (CYYJ) |
| Time | Latitude | Longitude | Altitude | Speed | Heading |
|---|---|---|---|---|---|
| 2026-05-08 01:56 | 49.18187 | -123.16839 | 18 ft | 0 kts | 185° |
| 2026-05-08 01:58 | 49.18188 | -123.16839 | 18 ft | 0 kts | 185° |
| 2026-05-08 02:01 | 49.18185 | -123.16839 | 18 ft | 3 kts | 173° |
| 2026-05-08 02:02 | 49.18245 | -123.16747 | 18 ft | 21 kts | 76° |
| 2026-05-08 02:02 | 49.18231 | -123.16531 | 18 ft | 25 kts | 96° |
| 2026-05-08 02:02 | 49.18226 | -123.16290 | 18 ft | 13 kts | 60° |
| 2026-05-08 02:02 | 49.18269 | -123.16265 | 18 ft | 0 kts | 2° |
| 2026-05-08 02:04 | 49.18270 | -123.16265 | 18 ft | 3 kts | 2° |
| 2026-05-08 02:04 | 49.18356 | -123.16254 | 18 ft | 13 kts | 5° |
| 2026-05-08 02:04 | 49.18429 | -123.16240 | 18 ft | 15 kts | 8° |
| 2026-05-08 02:04 | 49.18497 | -123.16291 | 18 ft | 10 kts | 281° |
| 2026-05-08 02:05 | 49.18564 | -123.16898 | 40 ft | 99 kts | 278° |
| 2026-05-08 02:05 | 49.18686 | -123.18000 | 503 ft | 107 kts | 276° |
| 2026-05-08 02:05 | 49.18811 | -123.19133 | 1038 ft | 109 kts | 279° |
| 2026-05-08 02:05 | 49.18972 | -123.20281 | 1570 ft | 113 kts | 279° |
| 2026-05-08 02:06 | 49.19095 | -123.21481 | 2088 ft | 119 kts | 276° |
| 2026-05-08 02:06 | 49.19237 | -123.22892 | 2315 ft | 138 kts | 277° |
| 2026-05-08 02:06 | 49.19371 | -123.24395 | 2620 ft | 146 kts | 276° |
| 2026-05-08 02:06 | 49.19119 | -123.25892 | 2902 ft | 152 kts | 235° |
| 2026-05-08 02:07 | 49.18239 | -123.26745 | 3179 ft | 154 kts | 192° |
| 2026-05-08 02:07 | 49.17218 | -123.26390 | 3448 ft | 154 kts | 146° |
| 2026-05-08 02:07 | 49.16344 | -123.25484 | 3750 ft | 151 kts | 148° |
| 2026-05-08 02:07 | 49.15463 | -123.24626 | 4053 ft | 150 kts | 148° |
| 2026-05-08 02:08 | 49.14587 | -123.23775 | 4357 ft | 149 kts | 148° |
| 2026-05-08 02:08 | 49.13596 | -123.23446 | 4597 ft | 154 kts | 188° |
| 2026-05-08 02:08 | 49.12502 | -123.23808 | 4606 ft | 167 kts | 194° |
| 2026-05-08 02:08 | 49.11352 | -123.24231 | 4608 ft | 172 kts | 194° |
| 2026-05-08 02:09 | 49.10179 | -123.24663 | 4608 ft | 174 kts | 194° |
| 2026-05-08 02:09 | 49.08996 | -123.25100 | 4609 ft | 176 kts | 194° |
| 2026-05-08 02:09 | 49.07805 | -123.25539 | 4609 ft | 176 kts | 194° |
| 2026-05-08 02:09 | 49.06614 | -123.25980 | 4608 ft | 176 kts | 194° |
| 2026-05-08 02:10 | 49.05423 | -123.26418 | 4608 ft | 176 kts | 194° |
| 2026-05-08 02:10 | 49.04227 | -123.26861 | 4546 ft | 179 kts | 194° |
| 2026-05-08 02:10 | 49.03038 | -123.27301 | 4413 ft | 170 kts | 194° |
| 2026-05-08 02:10 | 49.01914 | -123.27719 | 4282 ft | 163 kts | 194° |
| 2026-05-08 02:11 | 49.00821 | -123.28124 | 4153 ft | 160 kts | 194° |
| 2026-05-08 02:11 | 48.99761 | -123.28517 | 4129 ft | 153 kts | 195° |
| 2026-05-08 02:11 | 48.98741 | -123.28869 | 4127 ft | 148 kts | 194° |
| 2026-05-08 02:11 | 48.97745 | -123.29215 | 4125 ft | 146 kts | 194° |
| 2026-05-08 02:12 | 48.96760 | -123.29557 | 4125 ft | 145 kts | 195° |
| 2026-05-08 02:12 | 48.95780 | -123.29895 | 4125 ft | 144 kts | 194° |
| 2026-05-08 02:12 | 48.94801 | -123.30233 | 4125 ft | 144 kts | 194° |
| 2026-05-08 02:12 | 48.93824 | -123.30568 | 4127 ft | 144 kts | 194° |
| 2026-05-08 02:13 | 48.92847 | -123.30905 | 4126 ft | 144 kts | 194° |
| 2026-05-08 02:13 | 48.91870 | -123.31244 | 4124 ft | 144 kts | 194° |
| 2026-05-08 02:13 | 48.90894 | -123.31582 | 4125 ft | 144 kts | 194° |
| 2026-05-08 02:13 | 48.89918 | -123.31916 | 4124 ft | 144 kts | 194° |
| 2026-05-08 02:14 | 48.88942 | -123.32252 | 4126 ft | 144 kts | 194° |
| 2026-05-08 02:14 | 48.87967 | -123.32587 | 4126 ft | 144 kts | 194° |
| 2026-05-08 02:14 | 48.86992 | -123.32926 | 4126 ft | 144 kts | 194° |
| 2026-05-08 02:14 | 48.86016 | -123.33261 | 4121 ft | 144 kts | 195° |
| 2026-05-08 02:15 | 48.85030 | -123.33583 | 4119 ft | 146 kts | 194° |
| 2026-05-08 02:15 | 48.84034 | -123.33890 | 4122 ft | 146 kts | 194° |
| 2026-05-08 02:15 | 48.83037 | -123.34208 | 4122 ft | 147 kts | 194° |
| 2026-05-08 02:15 | 48.82035 | -123.34530 | 4124 ft | 147 kts | 195° |
| 2026-05-08 02:16 | 48.81034 | -123.34846 | 4122 ft | 147 kts | 195° |
| 2026-05-08 02:16 | 48.80034 | -123.35159 | 4122 ft | 147 kts | 194° |
| 2026-05-08 02:16 | 48.79034 | -123.35475 | 4122 ft | 147 kts | 194° |
| 2026-05-08 02:16 | 48.78032 | -123.35792 | 4122 ft | 147 kts | 194° |
| 2026-05-08 02:17 | 48.77034 | -123.36119 | 4123 ft | 147 kts | 194° |
| 2026-05-08 02:17 | 48.76045 | -123.36490 | 4116 ft | 146 kts | 210° |
| 2026-05-08 02:17 | 48.75457 | -123.37649 | 4123 ft | 141 kts | 261° |
| 2026-05-08 02:17 | 48.75559 | -123.39132 | 4015 ft | 145 kts | 285° |
| 2026-05-08 02:18 | 48.75800 | -123.40625 | 3889 ft | 146 kts | 285° |
| 2026-05-08 02:18 | 48.76047 | -123.42129 | 3762 ft | 147 kts | 285° |
| 2026-05-08 02:18 | 48.76295 | -123.43632 | 3637 ft | 148 kts | 285° |
| 2026-05-08 02:18 | 48.76512 | -123.45158 | 3500 ft | 149 kts | 271° |
| 2026-05-08 02:19 | 48.76089 | -123.46561 | 3343 ft | 152 kts | 223° |
| 2026-05-08 02:19 | 48.75128 | -123.47169 | 3204 ft | 153 kts | 195° |
| 2026-05-08 02:19 | 48.74098 | -123.47549 | 3078 ft | 152 kts | 195° |
| 2026-05-08 02:19 | 48.73055 | -123.47937 | 2819 ft | 156 kts | 195° |
| 2026-05-08 02:20 | 48.72017 | -123.48322 | 2564 ft | 150 kts | 195° |
| 2026-05-08 02:20 | 48.71054 | -123.48685 | 2310 ft | 126 kts | 195° |
| 2026-05-08 02:20 | 48.70300 | -123.48983 | 2114 ft | 95 kts | 196° |
| 2026-05-08 02:20 | 48.69603 | -123.49238 | 2194 ft | 116 kts | 194° |
| 2026-05-08 02:21 | 48.68844 | -123.49489 | 2160 ft | 110 kts | 192° |
| 2026-05-08 02:21 | 48.68088 | -123.49543 | 1915 ft | 109 kts | 178° |
| 2026-05-08 02:21 | 48.67352 | -123.49272 | 1612 ft | 113 kts | 160° |
| 2026-05-08 02:21 | 48.66656 | -123.48767 | 1339 ft | 112 kts | 152° |
| 2026-05-08 02:22 | 48.66061 | -123.48034 | 1116 ft | 109 kts | 133° |
| 2026-05-08 02:22 | 48.65757 | -123.46970 | 804 ft | 114 kts | 106° |
| 2026-05-08 02:22 | 48.65566 | -123.45907 | 462 ft | 94 kts | 110° |
| 2026-05-08 02:22 | 48.65386 | -123.44989 | 216 ft | 84 kts | 109° |
| 2026-05-08 02:23 | 48.65225 | -123.44143 | 111 ft | 85 kts | 108° |
| 2026-05-08 02:23 | 48.65079 | -123.43381 | 59 ft | 62 kts | 108° |
| 2026-05-08 02:23 | 48.64971 | -123.42833 | 62 ft | 48 kts | 103° |
| 2026-05-08 02:23 | 48.64895 | -123.42432 | 52 ft | 28 kts | 105° |
| 2026-05-08 02:24 | 48.64847 | -123.42171 | 53 ft | 22 kts | 105° |
| 2026-05-08 02:24 | 48.64777 | -123.42029 | 55 ft | 21 kts | 217° |
| 2026-05-08 02:24 | 48.64702 | -123.42166 | 56 ft | 11 kts | 222° |
| 2026-05-08 02:24 | 48.64661 | -123.42223 | 54 ft | 6 kts | 223° |
| 2026-05-08 02:25 | 48.64653 | -123.42233 | 52 ft | 1 kts | 218° |
| 2026-05-08 02:25 | 48.64605 | -123.42214 | 54 ft | 11 kts | 103° |
| 2026-05-08 02:26 | 48.64615 | -123.42173 | 53 ft | 9 kts | 298° |
| 2026-05-08 02:26 | 48.64592 | -123.42172 | 56 ft | 8 kts | 103° |
| 2026-05-08 02:26 | 48.64618 | -123.42187 | 54 ft | 8 kts | 279° |
| 2026-05-08 02:26 | 48.64603 | -123.42194 | 52 ft | 0 kts | 140° |
| 2026-05-08 02:27 | 48.64607 | -123.42157 | 56 ft | 6 kts | 330° |
| 2026-05-08 02:27 | 48.64615 | -123.42172 | 53 ft | 0 kts | 288° |
| 2026-05-08 02:27 | 48.64615 | -123.42171 | 53 ft | 0 kts | 288° |